x

Lake Of The Woods (45148) Wave Buoy

8:00pm - Tue 23rd Aug 2016 All times are UTC.

  • Sig Wave height 0.7ft
  • Peak Period 2s
  • Wind
    16mph, 20mph gusts
  • Sea Temp 72°f
  • Sea Pressure 1005.8mb

More Historic Weather Station data

Upgrade to MSW Pro to gain access to the past 30 days of data for over 8000 Wavebouys and Weather Stations around the globe.

Join Pro

Comparision Forecast

View Surf forecast
   
Tue 08/23 8:00pm 0.7ft 2s 16 20 mph 1005.8mb 72f
7:00pm 0.7ft 2s 18 20 mph 1006.5mb 72f
6:00pm 1ft 2s 13 18 mph 1007.1mb 72f
5:00pm 0.3ft 2s 20 25 mph 1006.3mb 71f
4:00pm 0.3ft 3s 9 11 mph 1008.9mb 71f
3:00pm 0.3ft 3s 9 13 mph 1009.5mb 71f
2:00pm 0.3ft 2s 11 16 mph 1008mb 71f
1:00pm 0.7ft 2s 13 16 mph 1007.8mb 71f
12:00pm 0.3ft 2s 16 18 mph 1006.6mb 71f
11:00am 0.3ft 3s 9 13 mph 1007.8mb 71f
10:00am 0.3ft 3s 13
mph
1007.9mb 71f
9:00am  -  4s 9 11 mph 1008.1mb 71f
8:00am  -  2s 7
mph
1008.3mb 71f
7:00am  -  5s 4 7 mph 1008mb 71f
6:00am  -  2s 9
mph
1008mb 71f
5:00am  -  2s 7 9 mph 1008.1mb 72f
4:00am  -  2s 9
mph
1008mb 72f
3:00am  -  2s 7 9 mph 1007.5mb 72f
2:00am  -  3s 4 7 mph 1007.1mb 72f
1:00am  -  2s 7 9 mph 1006.5mb 73f
12:00am 0.3ft 2s 9 11 mph 1006mb 72f
Mon 08/22 11:00pm 0.3ft 3s 9 11 mph 1005.7mb 72f
10:00pm 0.3ft 3s 11 13 mph 1005.6mb 72f
9:00pm  -  3s 11 13 mph 1005.8mb 72f
8:00pm  -  3s 11 16 mph 1006.2mb 72f
7:00pm 0.3ft 3s 11 13 mph 1006.7mb 72f
6:00pm 0.3ft 3s 11 13 mph 1007.1mb 71f
5:00pm 0.3ft 3s 13 16 mph 1007.6mb 71f
4:00pm 0.3ft 3s 13 18 mph 1007.9mb 71f
3:00pm  -  3s 9 11 mph 1008.4mb 71f
2:00pm 0.3ft 3s 11 13 mph 1008.7mb 71f
1:00pm  -  3s 11 13 mph 1009mb 71f
12:00pm  -  3s 9 11 mph 1009.3mb 71f
11:00am 0.3ft 3s 9 11 mph 1009.2mb 71f
10:00am 0.3ft 3s 9 11 mph 1009.1mb 71f
9:00am 0.3ft 2s 9 11 mph 1009.5mb 71f
8:00am 0.7ft 2s 11 13 mph 1009.6mb 71f
7:00am 0.7ft 2s 13 16 mph 1009.5mb 71f
6:00am 0.3ft 2s 18 22 mph 1009.7mb 71f
5:00am 0.3ft 3s 11 13 mph 1010.8mb 71f
4:00am 0.3ft 2s 13 16 mph 1010.5mb 71f
3:00am 0.3ft 3s 11 13 mph 1010.5mb 71f
2:00am 0.3ft 3s 9 11 mph 1010.5mb 71f
1:00am 0.3ft 2s 11 13 mph 1010.6mb 71f
12:00am 0.3ft 3s 13 16 mph 1010.7mb 71f
Sun 08/21 11:00pm 0.3ft 3s 11 13 mph 1011mb 72f
10:00pm 0.3ft 2s 11 13 mph 1011.2mb 72f
9:00pm 0.3ft 3s 9 13 mph 1011.7mb 72f
8:00pm 0.3ft 2s 7 9 mph 1012.1mb 72f
7:00pm 0.3ft 3s 9 13 mph 1012.5mb 72f
6:00pm 0.3ft 3s 7 13 mph 1012.8mb 72f
5:00pm 0.3ft 3s 9 11 mph 1012.9mb 71f
4:00pm  -  3s 9 13 mph 1013.2mb 71f
3:00pm  -  2s 7 11 mph 1013.1mb 71f
2:00pm  -  2s 4 7 mph 1013mb 71f
1:00pm  -  3s 4
mph
1012.7mb 71f
12:00pm  -  3s 9 11 mph 1012.2mb 70f
11:00am  -  3s 7 9 mph 1011.9mb 71f
10:00am  -  2s 9
mph
1011.4mb 71f
9:00am  -  3s 9 11 mph 1011.3mb 71f
8:00am  -  3s 11 13 mph 1011.5mb 71f
7:00am  -  4s 11 13 mph 1011.2mb 71f
6:00am  -  2s 7 9 mph 1011.2mb 71f
5:00am  -  3s 7 9 mph 1011.2mb 71f
4:00am 0.3ft 3s 9 11 mph 1011mb 71f
3:00am 0.3ft 2s 9 13 mph 1011mb 71f
2:00am 0.3ft 2s 11 13 mph 1010.7mb 72f
1:00am 0.3ft 2s 16 18 mph 1010.4mb 72f
12:00am 0.7ft 2s 13 20 mph 1010mb 72f
Sat 08/20 11:00pm 0.7ft 3s 18 22 mph 1009.9mb 72f
10:00pm 0.7ft 2s 16 20 mph 1010mb 72f
9:00pm 0.7ft 2s 16 20 mph 1010.1mb 72f
8:00pm 0.3ft 2s 13 22 mph 1010mb 72f
7:00pm 0.3ft 3s 16 20 mph 1010.4mb 72f
6:00pm 0.3ft 2s 11 18 mph 1010.6mb 72f
5:00pm 0.3ft 2s 16 18 mph 1010.9mb 72f
4:00pm 0.7ft 2s 16 20 mph 1011mb 71f
3:00pm 0.3ft 2s 13 18 mph 1011.3mb 71f
2:00pm 0.3ft 2s 13 18 mph 1011.5mb 71f
1:00pm 0.3ft 3s 13 16 mph 1011.8mb 71f
12:00pm 0.3ft 2s 11 16 mph 1011.7mb 72f
11:00am 0.3ft 2s 13 16 mph 1011.2mb 72f
10:00am 0.3ft 2s 13 18 mph 1010.9mb 72f
9:00am 0.3ft 2s 13 16 mph 1011.3mb 72f
8:00am 0.3ft 2s 13 18 mph 1011.5mb 72f
7:00am 0.3ft 3s 11 16 mph 1011.8mb 72f
6:00am 0.3ft 3s 13 18 mph 1012mb 72f
5:00am  -  3s 11 16 mph 1011.8mb 72f
4:00am  -  3s 9 13 mph 1011.4mb 72f
3:00am  -  3s 9 11 mph 1011.6mb 72f
2:00am  -  2s 11 13 mph 1011.5mb 72f
1:00am 0.3ft 3s 9 11 mph 1011.1mb 73f
12:00am 0.3ft 2s 9 11 mph 1010.8mb 73f
Fri 08/19 11:00pm 0.3ft 2s 9 13 mph 1011mb 73f
10:00pm 0.3ft 2s 9 13 mph 1011.1mb 73f